Time;durP1;ratioP1;P1;durP2;ratioP2;P2;SDS_P1;SDS_P2;PMS_P1;PMS_P2;Temp;Humidity;BMP_temperature;BMP_pressure;BME280_temperature;BME280_humidity;BME280_pressure;Samples;Min_cycle;Max_cycle;Signal;HPM_P1;HPM_P2
2020/12/25 00:01:18;;;;;;;;;;;8.00;68.40;;;;;;5093239;28;19928;-72
2020/12/25 00:03:44;;;;;;;;;;;7.90;66.20;;;;;;5093345;28;19924;-72
2020/12/25 00:06:11;;;;;;;;;;;7.70;68.30;;;;;;5093342;28;19924;-72
2020/12/25 00:08:37;;;;;;;;;;;8.00;67.40;;;;;;5093257;28;19924;-72
2020/12/25 00:11:04;;;;;;;;;;;7.90;68.30;;;;;;5093004;28;20359;-72
2020/12/25 00:13:30;;;;;;;;;;;8.00;66.30;;;;;;5093018;28;19924;-72
2020/12/25 00:15:56;;;;;;;;;;;8.10;67.00;;;;;;5092722;28;19924;-72
2020/12/25 00:18:23;;;;;;;;;;;7.90;67.10;;;;;;5093183;28;19932;-72
2020/12/25 00:20:50;;;;;;;;;;;7.80;66.60;;;;;;5092859;28;19935;-73
2020/12/25 00:23:17;;;;;;;;;;;7.70;68.60;;;;;;5093222;28;19924;-72
2020/12/25 00:25:44;;;;;;;;;;;7.50;71.40;;;;;;5092988;28;19931;-72
2020/12/25 00:28:10;;;;;;;;;;;7.80;70.60;;;;;;5092871;28;19931;-72
2020/12/25 00:30:41;;;;;;;;;;;7.70;67.80;;;;;;5092938;28;19924;-72
2020/12/25 00:33:07;;;;;;;;;;;7.30;70.20;;;;;;5098534;28;20338;-72
2020/12/25 00:35:34;;;;;;;;;;;7.30;71.00;;;;;;5093701;28;19924;-72
2020/12/25 00:38:01;;;;;;;;;;;7.50;72.00;;;;;;5106181;28;19924;-71
2020/12/25 00:40:27;;;;;;;;;;;7.60;68.30;;;;;;5113608;28;19923;-74
2020/12/25 00:42:53;;;;;;;;;;;7.80;67.50;;;;;;5093004;28;19923;-72
2020/12/25 00:45:20;;;;;;;;;;;7.60;66.90;;;;;;5092785;28;19924;-72
2020/12/25 00:47:46;;;;;;;;;;;7.70;68.70;;;;;;5092503;28;20304;-72
2020/12/25 00:50:12;;;;;;;;;;;7.60;67.80;;;;;;5093082;28;20403;-72
2020/12/25 00:52:39;;;;;;;;;;;7.80;69.90;;;;;;5092136;28;20598;-72
2020/12/25 00:55:05;;;;;;;;;;;7.70;67.90;;;;;;5092459;28;19931;-72
2020/12/25 00:57:31;;;;;;;;;;;7.90;66.80;;;;;;5074356;28;19924;-72
2020/12/25 00:59:58;;;;;;;;;;;7.80;66.00;;;;;;5092378;28;19931;-72
2020/12/25 01:02:28;;;;;;;;;;;7.60;67.20;;;;;;5092420;28;19931;-72
2020/12/25 01:04:55;;;;;;;;;;;7.60;73.00;;;;;;5091829;28;20384;-72
2020/12/25 01:07:21;;;;;;;;;;;7.80;67.50;;;;;;5091911;28;19963;-74
2020/12/25 01:09:47;;;;;;;;;;;7.70;67.20;;;;;;5073971;28;19932;-74
2020/12/25 01:12:14;;;;;;;;;;;7.70;68.20;;;;;;5073637;28;19931;-74
2020/12/25 01:14:40;;;;;;;;;;;7.90;68.40;;;;;;5073772;28;19931;-74
2020/12/25 01:17:07;;;;;;;;;;;8.00;66.50;;;;;;5091816;28;19928;-71
2020/12/25 01:19:33;;;;;;;;;;;8.00;67.10;;;;;;5091909;28;19928;-74
2020/12/25 01:21:59;;;;;;;;;;;8.10;69.60;;;;;;5091680;28;19930;-72
2020/12/25 01:24:26;;;;;;;;;;;8.20;66.40;;;;;;5091708;28;19924;-74
2020/12/25 01:26:53;;;;;;;;;;;8.00;66.50;;;;;;5103021;28;19931;-75
2020/12/25 01:29:19;;;;;;;;;;;7.90;70.50;;;;;;5111773;28;19924;-74
2020/12/25 01:31:46;;;;;;;;;;;7.90;68.00;;;;;;5109917;28;19924;-74
2020/12/25 01:34:15;;;;;;;;;;;7.50;67.30;;;;;;5091579;28;20399;-74
2020/12/25 01:36:41;;;;;;;;;;;7.50;68.50;;;;;;5093067;28;19924;-74
2020/12/25 01:39:07;;;;;;;;;;;7.30;69.30;;;;;;5112052;28;19931;-74
2020/12/25 01:41:34;;;;;;;;;;;7.30;69.30;;;;;;5101835;28;19924;-74
2020/12/25 01:44:00;;;;;;;;;;;7.10;70.10;;;;;;5091579;28;19924;-75
2020/12/25 01:46:27;;;;;;;;;;;7.20;70.00;;;;;;5091268;28;19931;-76
2020/12/25 01:48:53;;;;;;;;;;;7.00;71.50;;;;;;5090611;28;19963;-73
2020/12/25 01:51:20;;;;;;;;;;;7.00;73.60;;;;;;5090613;28;19924;-74
2020/12/25 01:53:46;;;;;;;;;;;7.10;71.10;;;;;;5091685;28;19931;-74
2020/12/25 01:56:14;;;;;;;;;;;7.00;70.70;;;;;;5091095;28;20346;-74
2020/12/25 01:58:40;;;;;;;;;;;7.20;71.00;;;;;;5091208;28;19943;-74
2020/12/25 02:01:07;;;;;;;;;;;7.40;73.00;;;;;;5091340;28;19930;-74
2020/12/25 02:03:35;;;;;;;;;;;7.50;68.40;;;;;;5091344;28;19928;-74
2020/12/25 02:06:01;;;;;;;;;;;7.40;71.30;;;;;;5073053;28;19924;-74
2020/12/25 02:08:27;;;;;;;;;;;7.30;70.10;;;;;;5090729;28;19924;-74
2020/12/25 02:10:54;;;;;;;;;;;7.40;71.30;;;;;;5091099;28;19932;-74
2020/12/25 02:13:20;;;;;;;;;;;7.20;71.30;;;;;;5090870;28;19925;-74
2020/12/25 02:15:47;;;;;;;;;;;7.20;69.40;;;;;;5090956;28;19947;-74
2020/12/25 02:18:13;;;;;;;;;;;7.20;70.30;;;;;;5090802;28;19931;-74
2020/12/25 02:20:39;;;;;;;;;;;7.20;72.70;;;;;;5090450;28;19924;-74
2020/12/25 02:23:06;;;;;;;;;;;7.30;71.80;;;;;;5091079;28;20380;-74
2020/12/25 02:25:36;;;;;;;;;;;7.30;70.00;;;;;;5091177;28;20361;-75
2020/12/25 02:28:02;;;;;;;;;;;7.40;70.40;;;;;;5110969;28;19923;-74
2020/12/25 02:30:28;;;;;;;;;;;7.40;70.40;;;;;;5111046;28;20387;-74
2020/12/25 02:32:55;;;;;;;;;;;7.40;69.90;;;;;;5098781;28;20163;-72
2020/12/25 02:35:21;;;;;;;;;;;7.20;70.40;;;;;;5090479;28;19924;-75
2020/12/25 02:37:47;;;;;;;;;;;7.10;70.60;;;;;;5101533;28;19923;-73
2020/12/25 02:40:14;;;;;;;;;;;7.20;72.00;;;;;;5111031;28;19931;-72
2020/12/25 02:42:40;;;;;;;;;;;7.00;71.50;;;;;;5092727;28;19924;-73
2020/12/25 02:45:07;;;;;;;;;;;6.90;72.00;;;;;;5090944;28;19931;-73
2020/12/25 02:47:33;;;;;;;;;;;6.80;72.80;;;;;;5091227;28;19931;-74
2020/12/25 02:49:59;;;;;;;;;;;6.80;72.60;;;;;;5091056;28;20346;-72
2020/12/25 02:52:26;;;;;;;;;;;6.90;72.50;;;;;;5092984;28;19928;-72
2020/12/25 02:54:52;;;;;;;;;;;6.80;72.60;;;;;;5098126;28;19924;-77
2020/12/25 02:57:18;;;;;;;;;;;6.70;73.20;;;;;;5098294;28;19947;-74
2020/12/25 02:59:45;;;;;;;;;;;6.70;73.40;;;;;;5097994;28;20392;-72
2020/12/25 03:02:11;;;;;;;;;;;6.80;73.40;;;;;;5077421;28;19924;-73
2020/12/25 03:04:38;;;;;;;;;;;7.00;74.50;;;;;;5094584;28;20295;-72
2020/12/25 03:07:04;;;;;;;;;;;7.00;73.50;;;;;;5091066;28;20045;-73
2020/12/25 03:09:30;;;;;;;;;;;7.00;74.30;;;;;;5090856;28;19931;-72
2020/12/25 03:11:56;;;;;;;;;;;7.00;73.30;;;;;;5090158;28;19985;-74
2020/12/25 03:14:23;;;;;;;;;;;7.00;72.80;;;;;;5090134;28;19924;-74
2020/12/25 03:16:49;;;;;;;;;;;7.10;73.80;;;;;;5090029;28;20284;-74
2020/12/25 03:19:16;;;;;;;;;;;7.20;71.40;;;;;;5090000;28;19936;-74
2020/12/25 03:21:43;;;;;;;;;;;7.10;71.70;;;;;;5090091;28;20527;-74
2020/12/25 03:24:10;;;;;;;;;;;7.20;73.40;;;;;;5090157;28;19947;-72
2020/12/25 03:26:36;;;;;;;;;;;7.20;71.90;;;;;;5089947;28;20384;-72
2020/12/25 03:29:03;;;;;;;;;;;7.30;72.60;;;;;;5089631;28;19931;-72
2020/12/25 03:31:30;;;;;;;;;;;7.40;71.60;;;;;;5089922;28;19924;-72
2020/12/25 03:33:56;;;;;;;;;;;7.30;70.80;;;;;;5095136;28;19932;-72
2020/12/25 03:36:22;;;;;;;;;;;7.10;71.70;;;;;;5090166;28;19925;-74
2020/12/25 03:38:49;;;;;;;;;;;7.10;72.70;;;;;;5109863;28;19931;-72
2020/12/25 03:41:15;;;;;;;;;;;7.10;73.00;;;;;;5103155;28;20407;-74
2020/12/25 03:43:41;;;;;;;;;;;7.10;73.10;;;;;;5072104;28;19924;-74
2020/12/25 03:46:07;;;;;;;;;;;7.10;72.30;;;;;;5071591;28;19924;-74
2020/12/25 03:48:34;;;;;;;;;;;7.30;73.90;;;;;;5089520;28;19936;-74
2020/12/25 03:51:00;;;;;;;;;;;7.30;71.70;;;;;;5071415;28;19924;-74
2020/12/25 03:53:26;;;;;;;;;;;7.50;71.80;;;;;;5089543;28;19924;-74
2020/12/25 03:55:52;;;;;;;;;;;7.50;70.50;;;;;;5089683;28;19939;-74
2020/12/25 03:58:19;;;;;;;;;;;7.50;70.10;;;;;;5089494;28;19924;-74
2020/12/25 04:00:45;;;;;;;;;;;7.50;72.00;;;;;;5089578;28;19937;-74
2020/12/25 04:03:12;;;;;;;;;;;7.40;71.80;;;;;;5089436;28;19931;-74
2020/12/25 04:05:39;;;;;;;;;;;7.50;70.20;;;;;;5089780;28;19951;-74
2020/12/25 04:08:06;;;;;;;;;;;7.50;70.60;;;;;;5071759;28;19924;-74
2020/12/25 04:10:32;;;;;;;;;;;7.40;72.30;;;;;;5089742;28;19967;-77
2020/12/25 04:13:02;;;;;;;;;;;7.50;73.10;;;;;;5091397;28;20522;-72
2020/12/25 04:15:28;;;;;;;;;;;7.70;73.60;;;;;;5093810;28;19924;-74
2020/12/25 04:17:54;;;;;;;;;;;7.60;70.20;;;;;;5093321;28;20296;-74
2020/12/25 04:20:20;;;;;;;;;;;7.40;71.00;;;;;;5093288;28;19928;-74
2020/12/25 04:22:47;;;;;;;;;;;7.30;71.50;;;;;;5093145;28;19931;-74
2020/12/25 04:25:13;;;;;;;;;;;7.50;71.20;;;;;;5093141;28;19950;-72
2020/12/25 04:27:39;;;;;;;;;;;7.50;71.00;;;;;;5092918;28;19930;-72
2020/12/25 04:30:06;;;;;;;;;;;7.50;71.00;;;;;;5095162;28;19923;-72
2020/12/25 04:32:33;;;;;;;;;;;7.50;71.10;;;;;;5104281;28;20510;-72
2020/12/25 04:34:59;;;;;;;;;;;7.30;71.40;;;;;;5074739;28;19934;-74
2020/12/25 04:37:26;;;;;;;;;;;7.30;72.50;;;;;;5100428;28;20653;-73
2020/12/25 04:39:53;;;;;;;;;;;7.70;72.20;;;;;;5112934;28;19927;-74
2020/12/25 04:42:19;;;;;;;;;;;7.60;71.10;;;;;;5096665;28;19928;-74
2020/12/25 04:44:45;;;;;;;;;;;7.60;71.30;;;;;;5092384;28;19931;-74
2020/12/25 04:47:12;;;;;;;;;;;7.70;72.20;;;;;;5092608;28;20372;-74
2020/12/25 04:49:38;;;;;;;;;;;7.60;72.40;;;;;;5092147;28;19924;-74
2020/12/25 04:52:05;;;;;;;;;;;7.70;72.10;;;;;;5092003;28;19924;-74
2020/12/25 04:54:31;;;;;;;;;;;7.40;71.40;;;;;;5092255;28;19993;-74
2020/12/25 04:56:59;;;;;;;;;;;7.40;73.30;;;;;;5092205;28;19924;-74
2020/12/25 04:59:26;;;;;;;;;;;7.40;72.70;;;;;;5092136;28;19950;-72
2020/12/25 05:01:52;;;;;;;;;;;7.40;72.80;;;;;;5092035;28;19924;-72
2020/12/25 05:04:19;;;;;;;;;;;7.50;72.70;;;;;;5092055;28;20431;-72
2020/12/25 05:06:51;;;;;;;;;;;7.30;72.60;;;;;;5092429;28;19955;-74
2020/12/25 05:09:24;;;;;;;;;;;7.10;73.50;;;;;;5092095;28;19934;-74
2020/12/25 05:11:51;;;;;;;;;;;7.00;74.00;;;;;;5091955;28;19924;-74
2020/12/25 05:14:18;;;;;;;;;;;7.00;74.40;;;;;;5092281;28;19924;-72
2020/12/25 05:16:46;;;;;;;;;;;7.00;74.70;;;;;;5091982;28;19924;-73
2020/12/25 05:19:13;;;;;;;;;;;7.10;75.50;;;;;;5091849;28;19924;-74
2020/12/25 05:21:40;;;;;;;;;;;7.00;75.40;;;;;;5092218;28;19935;-74
2020/12/25 05:24:08;;;;;;;;;;;7.10;75.70;;;;;;5091671;28;19935;-73
2020/12/25 05:26:35;;;;;;;;;;;7.20;74.60;;;;;;5100522;28;20443;-72
2020/12/25 05:29:02;;;;;;;;;;;7.20;74.50;;;;;;5112043;28;20397;-74
2020/12/25 05:31:28;;;;;;;;;;;7.30;75.30;;;;;;5111988;28;19927;-74
2020/12/25 05:33:58;;;;;;;;;;;7.40;74.30;;;;;;5106031;28;19923;-72
2020/12/25 05:36:28;;;;;;;;;;;7.40;73.30;;;;;;5111961;28;19924;-74
2020/12/25 05:38:58;;;;;;;;;;;7.30;73.50;;;;;;5091369;28;19924;-74
2020/12/25 05:41:24;;;;;;;;;;;7.40;73.90;;;;;;5099400;28;19931;-72
2020/12/25 05:43:52;;;;;;;;;;;7.40;73.40;;;;;;5111881;28;20052;-72
2020/12/25 05:46:18;;;;;;;;;;;7.40;73.10;;;;;;5111659;28;19924;-74
2020/12/25 05:48:49;;;;;;;;;;;7.30;73.40;;;;;;5111444;28;20295;-72
2020/12/25 05:51:21;;;;;;;;;;;7.40;73.20;;;;;;5102474;28;20361;-74
2020/12/25 05:53:48;;;;;;;;;;;7.40;73.60;;;;;;5091123;28;20422;-72
2020/12/25 05:56:15;;;;;;;;;;;7.60;73.10;;;;;;5091421;28;19940;-72
2020/12/25 05:58:44;;;;;;;;;;;7.60;73.00;;;;;;5091464;28;20475;-74
2020/12/25 06:01:11;;;;;;;;;;;7.70;71.80;;;;;;5091082;28;20457;-74
2020/12/25 06:03:38;;;;;;;;;;;7.60;73.80;;;;;;5091022;28;19924;-74
2020/12/25 06:06:11;;;;;;;;;;;7.50;72.60;;;;;;5091286;28;20020;-74
2020/12/25 06:08:41;;;;;;;;;;;7.60;72.10;;;;;;5090760;28;20595;-72
2020/12/25 06:11:08;;;;;;;;;;;7.60;72.90;;;;;;5090751;28;19924;-74
2020/12/25 06:13:43;;;;;;;;;;;7.60;72.30;;;;;;5090650;28;20388;-74
2020/12/25 06:16:14;;;;;;;;;;;7.60;72.10;;;;;;5098385;28;19963;-74
2020/12/25 06:18:48;;;;;;;;;;;7.50;71.40;;;;;;5111219;28;19924;-74
2020/12/25 06:21:29;;;;;;;;;;;7.60;72.90;;;;;;5110777;28;20380;-72
2020/12/25 06:23:57;;;;;;;;;;;7.70;72.70;;;;;;5111054;28;19924;-72
2020/12/25 06:26:24;;;;;;;;;;;7.80;70.40;;;;;;5103730;28;20006;-72
2020/12/25 06:28:50;;;;;;;;;;;7.80;70.60;;;;;;5090391;28;19924;-74
2020/12/25 06:31:40;;;;;;;;;;;7.70;70.10;;;;;;5090445;28;19935;-72
2020/12/25 06:34:07;;;;;;;;;;;7.60;71.90;;;;;;5106921;28;20011;-75
2020/12/25 06:36:34;;;;;;;;;;;7.60;70.90;;;;;;5109286;28;20308;-74
2020/12/25 06:39:09;;;;;;;;;;;7.60;71.00;;;;;;5090503;28;19924;-72
2020/12/25 06:41:39;;;;;;;;;;;7.50;71.70;;;;;;5100030;28;19928;-72
2020/12/25 06:44:09;;;;;;;;;;;7.40;72.50;;;;;;5110954;28;20291;-74
2020/12/25 06:46:35;;;;;;;;;;;7.40;72.30;;;;;;5110524;28;19924;-72
2020/12/25 06:49:06;;;;;;;;;;;7.40;72.00;;;;;;5110300;28;19935;-72
2020/12/25 06:51:44;;;;;;;;;;;7.40;71.70;;;;;;5110051;28;19924;-74
2020/12/25 06:54:31;;;;;;;;;;;7.40;72.40;;;;;;5110663;28;19946;-74
2020/12/25 06:56:58;;;;;;;;;;;7.30;71.50;;;;;;5093064;28;20303;-72
2020/12/25 06:59:24;;;;;;;;;;;7.30;72.70;;;;;;5110676;28;19924;-72
2020/12/25 07:01:54;;;;;;;;;;;7.30;71.80;;;;;;5110682;28;20005;-72
2020/12/25 07:04:24;;;;;;;;;;;7.30;72.00;;;;;;5110572;28;19930;-72
2020/12/25 07:07:00;;;;;;;;;;;7.10;72.80;;;;;;5110604;28;20568;-73
2020/12/25 07:09:35;;;;;;;;;;;7.10;72.70;;;;;;5110528;28;19931;-73
2020/12/25 07:12:12;;;;;;;;;;;7.00;73.40;;;;;;5110558;28;19930;-72
2020/12/25 07:14:39;;;;;;;;;;;7.00;73.70;;;;;;5110370;28;19927;-72
2020/12/25 07:17:06;;;;;;;;;;;6.80;74.40;;;;;;5094761;28;19924;-72
2020/12/25 07:19:35;;;;;;;;;;;6.90;74.60;;;;;;5089943;28;19935;-74
2020/12/25 07:22:03;;;;;;;;;;;6.80;74.40;;;;;;5090133;28;19931;-72
2020/12/25 07:24:30;;;;;;;;;;;7.10;74.60;;;;;;5090250;28;19935;-72
2020/12/25 07:26:56;;;;;;;;;;;7.00;72.90;;;;;;5101766;28;20403;-74
2020/12/25 07:29:23;;;;;;;;;;;7.10;73.10;;;;;;5092191;28;19930;-72
2020/12/25 07:31:55;;;;;;;;;;;7.20;73.90;;;;;;5107614;28;19927;-72
2020/12/25 07:34:22;;;;;;;;;;;7.30;71.80;;;;;;5089937;28;19977;-72
2020/12/25 07:36:49;;;;;;;;;;;7.10;72.60;;;;;;5092355;28;20128;-73
2020/12/25 07:39:15;;;;;;;;;;;7.20;73.10;;;;;;5110308;28;19931;-73
2020/12/25 07:41:42;;;;;;;;;;;7.20;72.80;;;;;;5099209;28;19924;-73
2020/12/25 07:44:09;;;;;;;;;;;7.10;72.60;;;;;;5089696;28;20296;-72
2020/12/25 07:46:37;;;;;;;;;;;7.10;72.70;;;;;;5089782;28;19924;-72
2020/12/25 07:49:04;;;;;;;;;;;7.10;72.30;;;;;;5092517;28;20479;-72
2020/12/25 07:51:31;;;;;;;;;;;7.00;73.30;;;;;;5093322;28;20308;-72
2020/12/25 07:53:58;;;;;;;;;;;7.00;73.90;;;;;;5093533;28;19946;-72
2020/12/25 07:56:28;;;;;;;;;;;7.10;73.70;;;;;;5093247;28;19943;-72
2020/12/25 07:58:55;;;;;;;;;;;7.20;72.70;;;;;;5093321;28;19925;-72
2020/12/25 08:01:25;;;;;;;;;;;7.40;73.70;;;;;;5093198;28;20410;-74
2020/12/25 08:03:51;;;;;;;;;;;7.50;71.30;;;;;;5093346;28;19924;-74
2020/12/25 08:06:19;;;;;;;;;;;7.50;71.70;;;;;;5093152;28;20315;-74
2020/12/25 08:08:47;;;;;;;;;;;7.50;71.00;;;;;;5093114;28;19924;-74
2020/12/25 08:11:15;;;;;;;;;;;7.60;71.10;;;;;;5093182;28;19924;-74
2020/12/25 08:13:42;;;;;;;;;;;7.60;71.60;;;;;;5093220;28;19927;-75
2020/12/25 08:16:09;;;;;;;;;;;7.60;71.20;;;;;;5092824;28;20388;-72
2020/12/25 08:18:49;;;;;;;;;;;7.60;69.70;;;;;;5093143;28;20179;-74
2020/12/25 08:21:16;;;;;;;;;;;7.50;71.00;;;;;;5092787;28;20376;-71
2020/12/25 08:23:43;;;;;;;;;;;7.50;71.70;;;;;;5092872;28;19935;-73
2020/12/25 08:26:10;;;;;;;;;;;7.50;71.10;;;;;;5098507;28;19924;-72
2020/12/25 08:28:36;;;;;;;;;;;7.40;71.00;;;;;;5113777;28;19943;-74
2020/12/25 08:31:13;;;;;;;;;;;7.50;71.90;;;;;;5113202;28;19924;-74
2020/12/25 08:33:39;;;;;;;;;;;7.50;71.80;;;;;;5094725;28;19950;-72
2020/12/25 08:36:10;;;;;;;;;;;7.40;71.00;;;;;;5092816;28;20001;-74
2020/12/25 08:38:40;;;;;;;;;;;7.70;71.60;;;;;;5111209;28;20273;-74
2020/12/25 08:41:07;;;;;;;;;;;7.80;71.10;;;;;;5107696;28;19924;-74
2020/12/25 08:43:33;;;;;;;;;;;7.60;71.00;;;;;;5075534;28;20385;-74
2020/12/25 08:46:00;;;;;;;;;;;7.70;71.80;;;;;;5093490;28;19928;-74
2020/12/25 08:48:27;;;;;;;;;;;7.70;70.40;;;;;;5092953;28;19932;-74
2020/12/25 08:51:06;;;;;;;;;;;7.80;70.40;;;;;;5092757;28;19931;-74
2020/12/25 08:53:32;;;;;;;;;;;7.70;70.70;;;;;;5092205;28;20561;-74
2020/12/25 08:56:12;;;;;;;;;;;7.60;71.30;;;;;;5074557;28;19928;-75
2020/12/25 08:58:38;;;;;;;;;;;7.50;71.70;;;;;;5073640;28;19924;-74
2020/12/25 09:01:04;;;;;;;;;;;7.40;72.30;;;;;;5091950;28;19924;-74
2020/12/25 09:03:38;;;;;;;;;;;7.50;73.70;;;;;;5092135;28;19924;-74
2020/12/25 09:06:05;;;;;;;;;;;7.60;72.30;;;;;;5092307;28;19924;-74
2020/12/25 09:08:31;;;;;;;;;;;7.60;71.90;;;;;;5074097;28;19938;-74
2020/12/25 09:10:58;;;;;;;;;;;7.60;72.00;;;;;;5091978;28;19931;-74
2020/12/25 09:13:24;;;;;;;;;;;7.80;73.00;;;;;;5091730;28;20360;-74
2020/12/25 09:15:50;;;;;;;;;;;8.10;70.40;;;;;;5097104;28;19931;-75
2020/12/25 09:18:17;;;;;;;;;;;8.10;70.30;;;;;;5112454;28;19923;-74
2020/12/25 09:20:43;;;;;;;;;;;8.30;71.10;;;;;;5112036;28;19924;-74
2020/12/25 09:23:10;;;;;;;;;;;8.30;69.30;;;;;;5112103;28;19924;-74
2020/12/25 09:25:37;;;;;;;;;;;8.30;69.10;;;;;;5110872;28;20477;-74
2020/12/25 09:28:04;;;;;;;;;;;8.20;69.60;;;;;;5091450;28;19927;-74
2020/12/25 09:30:30;;;;;;;;;;;8.40;69.30;;;;;;5091537;28;19933;-74
2020/12/25 09:32:56;;;;;;;;;;;8.20;68.80;;;;;;5096824;28;20426;-74
2020/12/25 09:35:23;;;;;;;;;;;8.30;69.20;;;;;;5091518;28;19924;-74
2020/12/25 09:37:49;;;;;;;;;;;8.10;70.00;;;;;;5102882;28;19924;-74
2020/12/25 09:40:15;;;;;;;;;;;7.90;70.60;;;;;;5111595;28;19939;-74
2020/12/25 09:42:42;;;;;;;;;;;7.90;70.30;;;;;;5092435;28;20383;-74
2020/12/25 09:45:08;;;;;;;;;;;7.80;71.00;;;;;;5091411;28;19924;-74
2020/12/25 09:47:34;;;;;;;;;;;7.70;72.20;;;;;;5091258;28;20392;-74
2020/12/25 09:50:01;;;;;;;;;;;7.90;71.00;;;;;;5073374;28;20315;-74
2020/12/25 09:52:27;;;;;;;;;;;8.10;71.80;;;;;;5090958;28;19927;-74
2020/12/25 09:54:53;;;;;;;;;;;8.20;71.20;;;;;;5073182;28;20011;-72
2020/12/25 09:57:20;;;;;;;;;;;8.30;69.30;;;;;;5073209;28;19924;-75
2020/12/25 09:59:46;;;;;;;;;;;8.40;69.50;;;;;;5091338;28;20147;-74
2020/12/25 10:02:13;;;;;;;;;;;8.70;68.20;;;;;;5091356;28;19924;-72
2020/12/25 10:04:39;;;;;;;;;;;8.80;67.70;;;;;;5091402;28;19928;-71
2020/12/25 10:07:05;;;;;;;;;;;8.60;69.30;;;;;;5090858;28;19931;-74
2020/12/25 10:09:32;;;;;;;;;;;8.20;68.70;;;;;;5090742;28;19931;-75
2020/12/25 10:11:58;;;;;;;;;;;8.30;70.00;;;;;;5090200;28;20378;-74
2020/12/25 10:14:24;;;;;;;;;;;8.00;70.70;;;;;;5090849;28;20300;-75
2020/12/25 10:16:51;;;;;;;;;;;8.40;69.30;;;;;;5090837;28;19924;-71
2020/12/25 10:19:17;;;;;;;;;;;8.80;67.60;;;;;;5090546;28;19924;-72
2020/12/25 10:21:43;;;;;;;;;;;8.60;67.90;;;;;;5090620;28;20014;-74
2020/12/25 10:24:10;;;;;;;;;;;8.40;68.20;;;;;;5090684;28;19928;-75
2020/12/25 10:26:36;;;;;;;;;;;8.10;70.10;;;;;;5100014;28;19924;-74
2020/12/25 10:29:02;;;;;;;;;;;8.20;71.90;;;;;;5111094;28;19988;-75
2020/12/25 10:31:29;;;;;;;;;;;8.90;68.10;;;;;;5110874;28;19923;-73
2020/12/25 10:33:55;;;;;;;;;;;9.30;65.70;;;;;;5105027;28;20390;-72
2020/12/25 10:36:24;;;;;;;;;;;9.30;64.50;;;;;;5110803;28;19924;-72
2020/12/25 10:38:51;;;;;;;;;;;9.30;64.40;;;;;;5073260;28;19932;-74
2020/12/25 10:41:17;;;;;;;;;;;9.60;64.40;;;;;;5097670;28;19930;-72
2020/12/25 10:43:45;;;;;;;;;;;10.00;62.70;;;;;;5110685;28;19938;-72
2020/12/25 10:46:17;;;;;;;;;;;10.00;63.50;;;;;;5110783;28;20404;-75
2020/12/25 10:48:44;;;;;;;;;;;10.40;61.90;;;;;;5110473;28;20044;-72
2020/12/25 10:51:11;;;;;;;;;;;10.40;60.70;;;;;;5102612;28;19931;-72
2020/12/25 10:53:37;;;;;;;;;;;10.70;61.60;;;;;;5090043;28;19931;-74
2020/12/25 10:56:03;;;;;;;;;;;10.10;60.00;;;;;;5090340;28;19930;-75
2020/12/25 10:58:30;;;;;;;;;;;9.70;62.20;;;;;;5090349;28;19931;-72
2020/12/25 11:00:56;;;;;;;;;;;9.60;64.80;;;;;;5090090;28;19928;-72
2020/12/25 11:03:26;;;;;;;;;;;9.70;62.40;;;;;;5090186;28;20072;-72
2020/12/25 11:05:52;;;;;;;;;;;9.70;64.00;;;;;;5090361;28;19924;-72
2020/12/25 11:08:19;;;;;;;;;;;9.70;63.20;;;;;;5090289;28;20293;-72
2020/12/25 11:10:47;;;;;;;;;;;9.70;65.00;;;;;;5090133;28;19931;-75
2020/12/25 11:13:13;;;;;;;;;;;10.10;64.80;;;;;;5090020;28;19931;-72
2020/12/25 11:15:40;;;;;;;;;;;10.00;60.70;;;;;;5093280;28;20190;-72
2020/12/25 11:18:07;;;;;;;;;;;9.80;61.70;;;;;;5110769;28;19923;-75
2020/12/25 11:20:33;;;;;;;;;;;9.90;63.30;;;;;;5110181;28;20388;-72
2020/12/25 11:23:00;;;;;;;;;;;10.10;62.80;;;;;;5113939;28;20074;-72
2020/12/25 11:25:26;;;;;;;;;;;10.10;61.20;;;;;;5114722;28;20368;-72
2020/12/25 11:27:52;;;;;;;;;;;9.90;61.80;;;;;;5094713;28;19948;-73
2020/12/25 11:30:19;;;;;;;;;;;9.60;64.50;;;;;;5093968;28;19998;-73
2020/12/25 11:32:45;;;;;;;;;;;9.30;63.60;;;;;;5099548;28;19924;-73
2020/12/25 11:35:11;;;;;;;;;;;9.50;63.80;;;;;;5094514;28;19935;-72
2020/12/25 11:37:38;;;;;;;;;;;10.00;62.80;;;;;;5103614;28;19935;-73
2020/12/25 11:40:05;;;;;;;;;;;9.60;62.70;;;;;;5114098;28;20019;-73
2020/12/25 11:42:31;;;;;;;;;;;9.70;65.60;;;;;;5096460;28;20325;-74
2020/12/25 11:44:58;;;;;;;;;;;9.70;63.40;;;;;;5093804;28;19924;-73
2020/12/25 11:47:24;;;;;;;;;;;9.70;63.80;;;;;;5093647;28;19925;-73
2020/12/25 11:49:53;;;;;;;;;;;9.70;63.30;;;;;;5093690;28;20380;-72
2020/12/25 11:52:19;;;;;;;;;;;9.70;64.30;;;;;;5093214;28;19951;-73
2020/12/25 11:54:45;;;;;;;;;;;9.60;61.90;;;;;;5093345;28;19928;-73
2020/12/25 11:57:11;;;;;;;;;;;9.70;61.70;;;;;;5093286;28;19958;-72
2020/12/25 11:59:38;;;;;;;;;;;9.70;62.30;;;;;;5093447;28;19940;-72
2020/12/25 12:02:04;;;;;;;;;;;9.80;62.90;;;;;;5093080;28;19924;-73
2020/12/25 12:04:30;;;;;;;;;;;9.50;62.60;;;;;;5093169;28;20445;-73
2020/12/25 12:06:57;;;;;;;;;;;9.30;63.70;;;;;;5093314;28;20030;-73
2020/12/25 12:09:23;;;;;;;;;;;9.40;63.10;;;;;;5093306;28;19924;-75
2020/12/25 12:11:50;;;;;;;;;;;9.40;61.80;;;;;;5093104;28;19965;-75
2020/12/25 12:14:16;;;;;;;;;;;9.30;62.90;;;;;;5093326;28;19931;-75
2020/12/25 12:16:42;;;;;;;;;;;9.60;62.60;;;;;;5093153;28;19924;-75
2020/12/25 12:19:09;;;;;;;;;;;10.00;61.00;;;;;;5093692;28;19959;-74
2020/12/25 12:21:36;;;;;;;;;;;9.70;61.00;;;;;;5094436;28;19931;-74
2020/12/25 12:24:02;;;;;;;;;;;9.90;61.20;;;;;;5093576;28;19928;-74
2020/12/25 12:26:29;;;;;;;;;;;9.80;61.80;;;;;;5101060;28;19930;-75
2020/12/25 12:28:55;;;;;;;;;;;9.80;60.40;;;;;;5114519;28;19930;-75
2020/12/25 12:31:21;;;;;;;;;;;9.70;60.30;;;;;;5113832;28;19931;-74
2020/12/25 12:33:48;;;;;;;;;;;9.20;62.20;;;;;;5074687;28;20392;-74
2020/12/25 12:36:14;;;;;;;;;;;9.30;62.70;;;;;;5092703;28;20384;-74
2020/12/25 12:38:40;;;;;;;;;;;9.20;61.20;;;;;;5110886;28;19924;-74
2020/12/25 12:41:07;;;;;;;;;;;8.90;61.40;;;;;;5106898;28;19931;-74
2020/12/25 12:43:34;;;;;;;;;;;8.70;62.40;;;;;;5092683;28;19924;-75
2020/12/25 12:46:00;;;;;;;;;;;8.60;62.60;;;;;;5092257;28;20395;-74
2020/12/25 12:48:26;;;;;;;;;;;9.20;63.90;;;;;;5092465;28;19993;-74
2020/12/25 12:50:52;;;;;;;;;;;9.30;65.50;;;;;;5092424;28;19932;-75
2020/12/25 12:53:19;;;;;;;;;;;9.70;61.60;;;;;;5092108;28;19932;-74
2020/12/25 12:55:45;;;;;;;;;;;9.60;62.60;;;;;;5092549;28;19924;-75
2020/12/25 12:58:12;;;;;;;;;;;9.80;60.50;;;;;;5092725;28;19924;-74
2020/12/25 13:00:54;;;;;;;;;;;9.70;60.20;;;;;;5092229;28;20023;-74
2020/12/25 13:03:20;;;;;;;;;;;9.80;61.20;;;;;;5092337;28;20269;-74
2020/12/25 13:05:47;;;;;;;;;;;9.80;60.60;;;;;;5074307;28;19924;-75
2020/12/25 13:08:13;;;;;;;;;;;9.70;60.00;;;;;;5091823;28;19924;-75
2020/12/25 13:10:41;;;;;;;;;;;9.60;62.30;;;;;;5091995;28;19928;-75
2020/12/25 13:13:07;;;;;;;;;;;9.60;62.00;;;;;;5091856;28;19925;-75
2020/12/25 13:15:34;;;;;;;;;;;9.30;64.10;;;;;;5094849;28;19932;-74
2020/12/25 13:18:01;;;;;;;;;;;9.30;62.50;;;;;;5112222;28;19938;-76
2020/12/25 13:20:27;;;;;;;;;;;9.10;62.90;;;;;;5112311;28;20376;-77
2020/12/25 13:22:53;;;;;;;;;;;9.10;61.30;;;;;;5111972;28;19931;-74
2020/12/25 13:25:19;;;;;;;;;;;9.30;62.30;;;;;;5112534;28;20341;-74
2020/12/25 13:27:46;;;;;;;;;;;9.20;63.40;;;;;;5092968;28;20512;-75
2020/12/25 13:30:12;;;;;;;;;;;9.10;62.90;;;;;;5073764;28;19924;-75
2020/12/25 13:32:38;;;;;;;;;;;8.70;63.90;;;;;;5096851;28;20384;-74
2020/12/25 13:35:05;;;;;;;;;;;8.50;65.80;;;;;;5091692;28;20015;-76
2020/12/25 13:37:31;;;;;;;;;;;8.70;68.20;;;;;;5100153;28;20261;-78
2020/12/25 13:39:58;;;;;;;;;;;8.80;65.40;;;;;;5111870;28;19947;-73
2020/12/25 13:42:26;;;;;;;;;;;9.20;63.90;;;;;;5094851;28;19924;-73
2020/12/25 13:44:52;;;;;;;;;;;9.30;62.70;;;;;;5091205;28;20376;-74
2020/12/25 13:47:18;;;;;;;;;;;9.30;62.50;;;;;;5091555;28;19924;-74
2020/12/25 13:49:45;;;;;;;;;;;9.60;63.30;;;;;;5091116;28;19939;-74
2020/12/25 13:52:12;;;;;;;;;;;9.70;62.30;;;;;;5090894;28;19947;-74
2020/12/25 13:54:38;;;;;;;;;;;9.50;61.70;;;;;;5091014;28;19924;-74
2020/12/25 13:57:05;;;;;;;;;;;9.00;63.70;;;;;;5091184;28;19928;-76
2020/12/25 13:59:31;;;;;;;;;;;8.60;63.50;;;;;;5091296;28;19924;-76
2020/12/25 14:01:57;;;;;;;;;;;8.60;64.80;;;;;;5091171;28;19931;-76
2020/12/25 14:04:24;;;;;;;;;;;8.30;65.30;;;;;;5091256;28;20527;-76
2020/12/25 14:06:50;;;;;;;;;;;8.50;67.00;;;;;;5091407;28;19947;-76
2020/12/25 14:09:16;;;;;;;;;;;8.40;65.60;;;;;;5091154;28;19926;-76
2020/12/25 14:11:43;;;;;;;;;;;8.20;65.60;;;;;;5091027;28;19924;-75
2020/12/25 14:14:09;;;;;;;;;;;8.40;66.20;;;;;;5090719;28;19932;-76
2020/12/25 14:16:35;;;;;;;;;;;8.60;65.40;;;;;;5090947;28;19931;-75
2020/12/25 14:19:01;;;;;;;;;;;8.50;65.40;;;;;;5090985;28;20364;-74
2020/12/25 14:21:32;;;;;;;;;;;9.00;65.20;;;;;;5091032;28;19951;-75
2020/12/25 14:23:58;;;;;;;;;;;9.10;64.80;;;;;;5090749;28;19947;-76
2020/12/25 14:26:25;;;;;;;;;;;9.20;62.80;;;;;;5098466;28;19924;-75
2020/12/25 14:28:51;;;;;;;;;;;9.20;62.80;;;;;;5111555;28;20541;-76